sensor_id;sensor_type;location;lat;lon;timestamp;P1;durP1;ratioP1;P2;durP2;ratioP2
12151;SDS011;6139;51.274;7.128;2024-03-02T00:00:05;2.45;;;1.70;;
12151;SDS011;6139;51.274;7.128;2024-03-02T00:01:12;2.58;;;1.80;;
12151;SDS011;6139;51.274;7.128;2024-03-02T00:02:14;2.10;;;1.90;;
12151;SDS011;6139;51.274;7.128;2024-03-02T00:03:16;2.30;;;2.10;;
12151;SDS011;6139;51.274;7.128;2024-03-02T00:04:17;2.47;;;1.92;;
12151;SDS011;6139;51.274;7.128;2024-03-02T00:05:20;2.20;;;2.00;;
12151;SDS011;6139;51.274;7.128;2024-03-02T00:06:22;3.50;;;2.27;;
12151;SDS011;6139;51.274;7.128;2024-03-02T00:07:25;2.50;;;1.93;;
12151;SDS011;6139;51.274;7.128;2024-03-02T00:08:26;2.23;;;1.80;;
12151;SDS011;6139;51.274;7.128;2024-03-02T00:09:28;2.93;;;2.17;;
12151;SDS011;6139;51.274;7.128;2024-03-02T00:10:32;2.17;;;1.90;;
12151;SDS011;6139;51.274;7.128;2024-03-02T00:11:39;2.33;;;1.67;;
12151;SDS011;6139;51.274;7.128;2024-03-02T00:12:40;2.63;;;2.03;;
12151;SDS011;6139;51.274;7.128;2024-03-02T00:13:43;3.63;;;1.90;;
12151;SDS011;6139;51.274;7.128;2024-03-02T00:14:45;2.35;;;1.80;;
12151;SDS011;6139;51.274;7.128;2024-03-02T00:15:47;1.65;;;1.50;;
12151;SDS011;6139;51.274;7.128;2024-03-02T00:16:51;2.30;;;1.70;;
12151;SDS011;6139;51.274;7.128;2024-03-02T00:17:53;2.10;;;1.90;;
12151;SDS011;6139;51.274;7.128;2024-03-02T00:18:55;2.10;;;1.60;;
12151;SDS011;6139;51.274;7.128;2024-03-02T00:19:57;3.33;;;1.58;;
12151;SDS011;6139;51.274;7.128;2024-03-02T00:20:58;2.05;;;1.60;;
12151;SDS011;6139;51.274;7.128;2024-03-02T00:22:01;1.88;;;1.70;;
12151;SDS011;6139;51.274;7.128;2024-03-02T00:23:05;1.70;;;1.60;;
12151;SDS011;6139;51.274;7.128;2024-03-02T00:24:09;2.20;;;1.77;;
12151;SDS011;6139;51.274;7.128;2024-03-02T00:25:20;2.38;;;1.52;;
12151;SDS011;6139;51.274;7.128;2024-03-02T00:26:22;3.28;;;1.95;;
12151;SDS011;6139;51.274;7.128;2024-03-02T00:27:23;3.10;;;1.92;;
12151;SDS011;6139;51.274;7.128;2024-03-02T00:28:25;2.58;;;2.05;;
12151;SDS011;6139;51.274;7.128;2024-03-02T00:29:28;1.52;;;1.42;;
12151;SDS011;6139;51.274;7.128;2024-03-02T00:30:41;1.77;;;1.50;;
12151;SDS011;6139;51.274;7.128;2024-03-02T00:31:57;2.20;;;1.88;;
12151;SDS011;6139;51.274;7.128;2024-03-02T00:32:59;2.00;;;1.60;;
12151;SDS011;6139;51.274;7.128;2024-03-02T00:34:00;1.83;;;1.60;;
12151;SDS011;6139;51.274;7.128;2024-03-02T00:35:06;2.53;;;1.70;;
12151;SDS011;6139;51.274;7.128;2024-03-02T00:36:08;1.60;;;1.50;;
12151;SDS011;6139;51.274;7.128;2024-03-02T00:37:11;1.93;;;1.40;;
12151;SDS011;6139;51.274;7.128;2024-03-02T00:38:13;1.88;;;1.58;;
12151;SDS011;6139;51.274;7.128;2024-03-02T00:39:15;2.30;;;1.50;;
12151;SDS011;6139;51.274;7.128;2024-03-02T00:40:18;2.15;;;1.42;;
12151;SDS011;6139;51.274;7.128;2024-03-02T00:41:21;1.67;;;1.42;;
12151;SDS011;6139;51.274;7.128;2024-03-02T00:42:23;2.00;;;1.63;;
12151;SDS011;6139;51.274;7.128;2024-03-02T00:43:37;2.63;;;1.55;;
12151;SDS011;6139;51.274;7.128;2024-03-02T00:44:42;2.28;;;1.70;;
12151;SDS011;6139;51.274;7.128;2024-03-02T00:45:44;2.63;;;1.50;;
12151;SDS011;6139;51.274;7.128;2024-03-02T00:46:44;2.83;;;1.60;;
12151;SDS011;6139;51.274;7.128;2024-03-02T00:47:47;2.45;;;1.70;;
12151;SDS011;6139;51.274;7.128;2024-03-02T00:48:51;1.60;;;1.50;;
12151;SDS011;6139;51.274;7.128;2024-03-02T00:49:56;1.75;;;1.55;;
12151;SDS011;6139;51.274;7.128;2024-03-02T00:50:58;2.45;;;1.65;;
12151;SDS011;6139;51.274;7.128;2024-03-02T00:51:59;3.30;;;1.70;;
12151;SDS011;6139;51.274;7.128;2024-03-02T00:53:01;2.35;;;1.50;;
12151;SDS011;6139;51.274;7.128;2024-03-02T00:54:04;1.90;;;1.70;;
12151;SDS011;6139;51.274;7.128;2024-03-02T00:55:09;1.88;;;1.50;;
12151;SDS011;6139;51.274;7.128;2024-03-02T00:56:10;1.85;;;1.67;;
12151;SDS011;6139;51.274;7.128;2024-03-02T00:57:12;1.80;;;1.30;;
12151;SDS011;6139;51.274;7.128;2024-03-02T00:58:14;2.15;;;1.30;;
12151;SDS011;6139;51.274;7.128;2024-03-02T00:59:15;1.65;;;1.50;;
12151;SDS011;6139;51.274;7.128;2024-03-02T01:00:17;1.95;;;1.60;;
12151;SDS011;6139;51.274;7.128;2024-03-02T01:01:18;3.08;;;1.65;;
12151;SDS011;6139;51.274;7.128;2024-03-02T01:02:21;2.03;;;1.40;;
12151;SDS011;6139;51.274;7.128;2024-03-02T01:03:22;2.67;;;1.50;;
12151;SDS011;6139;51.274;7.128;2024-03-02T01:04:23;1.83;;;1.40;;
12151;SDS011;6139;51.274;7.128;2024-03-02T01:05:25;2.95;;;1.88;;
12151;SDS011;6139;51.274;7.128;2024-03-02T01:06:26;2.22;;;1.65;;
12151;SDS011;6139;51.274;7.128;2024-03-02T01:07:28;2.03;;;1.43;;
12151;SDS011;6139;51.274;7.128;2024-03-02T01:08:28;1.40;;;1.30;;
12151;SDS011;6139;51.274;7.128;2024-03-02T01:09:31;1.92;;;1.40;;
12151;SDS011;6139;51.274;7.128;2024-03-02T01:10:33;1.95;;;1.70;;
12151;SDS011;6139;51.274;7.128;2024-03-02T01:11:34;2.58;;;1.90;;
12151;SDS011;6139;51.274;7.128;2024-03-02T01:12:36;3.50;;;2.17;;
12151;SDS011;6139;51.274;7.128;2024-03-02T01:13:36;2.43;;;1.53;;
12151;SDS011;6139;51.274;7.128;2024-03-02T01:14:38;2.33;;;1.50;;
12151;SDS011;6139;51.274;7.128;2024-03-02T01:15:39;2.25;;;1.55;;
12151;SDS011;6139;51.274;7.128;2024-03-02T01:16:41;2.05;;;1.40;;
12151;SDS011;6139;51.274;7.128;2024-03-02T01:17:42;1.73;;;1.50;;
12151;SDS011;6139;51.274;7.128;2024-03-02T01:18:44;2.15;;;1.60;;
12151;SDS011;6139;51.274;7.128;2024-03-02T01:19:45;1.88;;;1.38;;
12151;SDS011;6139;51.274;7.128;2024-03-02T01:20:47;1.40;;;1.30;;
12151;SDS011;6139;51.274;7.128;2024-03-02T01:21:48;2.47;;;1.48;;
12151;SDS011;6139;51.274;7.128;2024-03-02T01:22:50;2.40;;;1.80;;
12151;SDS011;6139;51.274;7.128;2024-03-02T01:23:52;1.67;;;1.40;;
12151;SDS011;6139;51.274;7.128;2024-03-02T01:24:55;2.40;;;1.50;;
12151;SDS011;6139;51.274;7.128;2024-03-02T01:25:56;4.70;;;1.83;;
12151;SDS011;6139;51.274;7.128;2024-03-02T01:26:58;1.65;;;1.33;;
12151;SDS011;6139;51.274;7.128;2024-03-02T01:27:59;2.17;;;1.55;;
12151;SDS011;6139;51.274;7.128;2024-03-02T01:29:00;2.00;;;1.60;;
12151;SDS011;6139;51.274;7.128;2024-03-02T01:30:02;1.92;;;1.70;;
12151;SDS011;6139;51.274;7.128;2024-03-02T01:31:03;3.20;;;1.50;;
12151;SDS011;6139;51.274;7.128;2024-03-02T01:32:05;1.60;;;1.37;;
12151;SDS011;6139;51.274;7.128;2024-03-02T01:33:06;2.33;;;1.40;;
12151;SDS011;6139;51.274;7.128;2024-03-02T01:34:07;1.83;;;1.50;;
12151;SDS011;6139;51.274;7.128;2024-03-02T01:35:09;2.90;;;1.80;;
12151;SDS011;6139;51.274;7.128;2024-03-02T01:36:11;2.58;;;1.50;;
12151;SDS011;6139;51.274;7.128;2024-03-02T01:37:13;2.38;;;1.60;;
12151;SDS011;6139;51.274;7.128;2024-03-02T01:38:14;3.60;;;1.50;;
12151;SDS011;6139;51.274;7.128;2024-03-02T01:39:15;1.50;;;1.40;;
12151;SDS011;6139;51.274;7.128;2024-03-02T01:40:18;2.47;;;1.50;;
12151;SDS011;6139;51.274;7.128;2024-03-02T01:41:19;2.95;;;1.58;;
12151;SDS011;6139;51.274;7.128;2024-03-02T01:42:21;2.40;;;1.70;;
12151;SDS011;6139;51.274;7.128;2024-03-02T01:43:22;2.10;;;1.50;;
12151;SDS011;6139;51.274;7.128;2024-03-02T01:44:24;1.52;;;1.40;;
12151;SDS011;6139;51.274;7.128;2024-03-02T01:45:25;1.40;;;1.30;;
12151;SDS011;6139;51.274;7.128;2024-03-02T01:46:27;1.98;;;1.40;;
12151;SDS011;6139;51.274;7.128;2024-03-02T01:47:28;1.70;;;1.57;;
12151;SDS011;6139;51.274;7.128;2024-03-02T01:48:29;2.03;;;1.33;;
12151;SDS011;6139;51.274;7.128;2024-03-02T01:49:31;1.97;;;1.40;;
12151;SDS011;6139;51.274;7.128;2024-03-02T01:50:34;1.80;;;1.40;;
12151;SDS011;6139;51.274;7.128;2024-03-02T01:51:36;2.50;;;1.20;;
12151;SDS011;6139;51.274;7.128;2024-03-02T01:52:37;2.53;;;1.52;;
12151;SDS011;6139;51.274;7.128;2024-03-02T01:53:38;3.75;;;1.40;;
12151;SDS011;6139;51.274;7.128;2024-03-02T01:54:40;2.13;;;1.63;;
12151;SDS011;6139;51.274;7.128;2024-03-02T01:55:42;1.70;;;1.30;;
12151;SDS011;6139;51.274;7.128;2024-03-02T01:56:43;1.92;;;1.52;;
12151;SDS011;6139;51.274;7.128;2024-03-02T01:57:46;2.17;;;1.40;;
12151;SDS011;6139;51.274;7.128;2024-03-02T01:58:48;1.40;;;1.30;;
12151;SDS011;6139;51.274;7.128;2024-03-02T01:59:50;2.70;;;1.23;;
12151;SDS011;6139;51.274;7.128;2024-03-02T02:00:51;2.42;;;1.38;;
12151;SDS011;6139;51.274;7.128;2024-03-02T02:01:53;1.85;;;1.50;;
12151;SDS011;6139;51.274;7.128;2024-03-02T02:02:54;1.60;;;1.50;;
12151;SDS011;6139;51.274;7.128;2024-03-02T02:03:56;1.70;;;1.40;;
12151;SDS011;6139;51.274;7.128;2024-03-02T02:04:57;2.25;;;1.20;;
12151;SDS011;6139;51.274;7.128;2024-03-02T02:05:58;2.72;;;1.58;;
12151;SDS011;6139;51.274;7.128;2024-03-02T02:07:00;2.53;;;1.52;;
12151;SDS011;6139;51.274;7.128;2024-03-02T02:08:01;3.13;;;1.70;;
12151;SDS011;6139;51.274;7.128;2024-03-02T02:09:03;3.03;;;1.50;;
12151;SDS011;6139;51.274;7.128;2024-03-02T02:10:04;2.30;;;1.40;;
12151;SDS011;6139;51.274;7.128;2024-03-02T02:11:08;1.53;;;1.33;;
12151;SDS011;6139;51.274;7.128;2024-03-02T02:12:10;2.15;;;1.48;;
12151;SDS011;6139;51.274;7.128;2024-03-02T02:13:11;3.17;;;1.60;;
12151;SDS011;6139;51.274;7.128;2024-03-02T02:14:13;2.97;;;1.60;;
12151;SDS011;6139;51.274;7.128;2024-03-02T02:15:26;2.60;;;1.83;;
12151;SDS011;6139;51.274;7.128;2024-03-02T02:16:29;1.63;;;1.50;;
12151;SDS011;6139;51.274;7.128;2024-03-02T02:17:30;2.33;;;1.77;;
12151;SDS011;6139;51.274;7.128;2024-03-02T02:18:31;2.93;;;1.80;;
12151;SDS011;6139;51.274;7.128;2024-03-02T02:19:33;2.45;;;1.60;;
12151;SDS011;6139;51.274;7.128;2024-03-02T02:20:34;2.13;;;1.40;;
12151;SDS011;6139;51.274;7.128;2024-03-02T02:21:37;3.00;;;1.90;;
12151;SDS011;6139;51.274;7.128;2024-03-02T02:22:38;1.50;;;1.40;;
12151;SDS011;6139;51.274;7.128;2024-03-02T02:23:39;2.30;;;1.55;;
12151;SDS011;6139;51.274;7.128;2024-03-02T02:24:46;2.75;;;1.55;;
12151;SDS011;6139;51.274;7.128;2024-03-02T02:25:47;2.38;;;1.60;;
12151;SDS011;6139;51.274;7.128;2024-03-02T02:26:49;2.38;;;1.63;;
12151;SDS011;6139;51.274;7.128;2024-03-02T02:27:50;1.75;;;1.50;;
12151;SDS011;6139;51.274;7.128;2024-03-02T02:28:51;2.88;;;1.45;;
12151;SDS011;6139;51.274;7.128;2024-03-02T02:29:53;2.00;;;1.50;;
12151;SDS011;6139;51.274;7.128;2024-03-02T02:30:56;2.08;;;1.40;;
12151;SDS011;6139;51.274;7.128;2024-03-02T02:32:00;1.55;;;1.40;;
12151;SDS011;6139;51.274;7.128;2024-03-02T02:33:01;1.60;;;1.50;;
12151;SDS011;6139;51.274;7.128;2024-03-02T02:34:03;3.72;;;1.60;;
12151;SDS011;6139;51.274;7.128;2024-03-02T02:35:04;3.17;;;1.40;;
12151;SDS011;6139;51.274;7.128;2024-03-02T02:36:06;2.22;;;1.60;;
12151;SDS011;6139;51.274;7.128;2024-03-02T02:37:09;2.83;;;1.40;;
12151;SDS011;6139;51.274;7.128;2024-03-02T02:38:10;2.13;;;1.52;;
12151;SDS011;6139;51.274;7.128;2024-03-02T02:39:13;1.50;;;1.40;;
12151;SDS011;6139;51.274;7.128;2024-03-02T02:40:17;3.30;;;1.47;;
12151;SDS011;6139;51.274;7.128;2024-03-02T02:41:19;4.57;;;1.45;;
12151;SDS011;6139;51.274;7.128;2024-03-02T02:42:21;2.13;;;1.60;;
12151;SDS011;6139;51.274;7.128;2024-03-02T02:43:22;1.50;;;1.40;;
12151;SDS011;6139;51.274;7.128;2024-03-02T02:44:23;2.83;;;1.38;;
12151;SDS011;6139;51.274;7.128;2024-03-02T02:45:25;1.50;;;1.35;;
12151;SDS011;6139;51.274;7.128;2024-03-02T02:46:27;1.92;;;1.55;;
12151;SDS011;6139;51.274;7.128;2024-03-02T02:47:28;5.13;;;1.50;;
12151;SDS011;6139;51.274;7.128;2024-03-02T02:48:30;2.53;;;1.40;;
12151;SDS011;6139;51.274;7.128;2024-03-02T02:49:31;1.70;;;1.60;;
12151;SDS011;6139;51.274;7.128;2024-03-02T02:50:33;1.63;;;1.50;;
12151;SDS011;6139;51.274;7.128;2024-03-02T02:51:33;1.95;;;1.30;;
12151;SDS011;6139;51.274;7.128;2024-03-02T02:52:37;2.05;;;1.58;;
12151;SDS011;6139;51.274;7.128;2024-03-02T02:53:40;2.30;;;1.60;;
12151;SDS011;6139;51.274;7.128;2024-03-02T02:54:42;1.80;;;1.23;;
12151;SDS011;6139;51.274;7.128;2024-03-02T02:55:43;2.10;;;1.45;;
12151;SDS011;6139;51.274;7.128;2024-03-02T02:56:45;1.60;;;1.38;;
12151;SDS011;6139;51.274;7.128;2024-03-02T02:57:46;1.92;;;1.45;;
12151;SDS011;6139;51.274;7.128;2024-03-02T02:58:47;4.03;;;1.60;;
12151;SDS011;6139;51.274;7.128;2024-03-02T02:59:48;2.45;;;1.50;;
12151;SDS011;6139;51.274;7.128;2024-03-02T03:00:50;2.05;;;1.50;;
12151;SDS011;6139;51.274;7.128;2024-03-02T03:01:51;3.75;;;1.40;;
12151;SDS011;6139;51.274;7.128;2024-03-02T03:02:53;1.70;;;1.55;;
12151;SDS011;6139;51.274;7.128;2024-03-02T03:03:54;1.85;;;1.50;;
12151;SDS011;6139;51.274;7.128;2024-03-02T03:04:56;1.67;;;1.58;;
12151;SDS011;6139;51.274;7.128;2024-03-02T03:05:57;2.75;;;1.50;;
12151;SDS011;6139;51.274;7.128;2024-03-02T03:06:58;2.95;;;1.50;;
12151;SDS011;6139;51.274;7.128;2024-03-02T03:08:03;1.90;;;1.40;;
12151;SDS011;6139;51.274;7.128;2024-03-02T03:09:04;7.65;;;1.63;;
12151;SDS011;6139;51.274;7.128;2024-03-02T03:10:06;1.92;;;1.55;;
12151;SDS011;6139;51.274;7.128;2024-03-02T03:11:08;1.40;;;1.30;;
12151;SDS011;6139;51.274;7.128;2024-03-02T03:12:09;2.42;;;1.60;;
12151;SDS011;6139;51.274;7.128;2024-03-02T03:13:11;2.10;;;1.50;;
12151;SDS011;6139;51.274;7.128;2024-03-02T03:14:11;3.17;;;1.70;;
12151;SDS011;6139;51.274;7.128;2024-03-02T03:15:13;4.68;;;1.80;;
12151;SDS011;6139;51.274;7.128;2024-03-02T03:16:16;1.65;;;1.42;;
12151;SDS011;6139;51.274;7.128;2024-03-02T03:17:18;1.73;;;1.63;;
12151;SDS011;6139;51.274;7.128;2024-03-02T03:18:19;2.35;;;1.55;;
12151;SDS011;6139;51.274;7.128;2024-03-02T03:19:20;2.95;;;1.40;;
12151;SDS011;6139;51.274;7.128;2024-03-02T03:20:22;1.70;;;1.60;;
12151;SDS011;6139;51.274;7.128;2024-03-02T03:21:23;4.30;;;1.77;;
12151;SDS011;6139;51.274;7.128;2024-03-02T03:22:25;2.38;;;1.60;;
12151;SDS011;6139;51.274;7.128;2024-03-02T03:23:28;4.95;;;1.88;;
12151;SDS011;6139;51.274;7.128;2024-03-02T03:24:29;2.00;;;1.50;;
12151;SDS011;6139;51.274;7.128;2024-03-02T03:25:30;3.17;;;1.55;;
12151;SDS011;6139;51.274;7.128;2024-03-02T03:26:33;2.13;;;1.58;;
12151;SDS011;6139;51.274;7.128;2024-03-02T03:27:36;2.15;;;1.50;;
12151;SDS011;6139;51.274;7.128;2024-03-02T03:28:38;1.48;;;1.30;;
12151;SDS011;6139;51.274;7.128;2024-03-02T03:29:39;3.33;;;1.70;;
12151;SDS011;6139;51.274;7.128;2024-03-02T03:30:40;1.58;;;1.42;;
12151;SDS011;6139;51.274;7.128;2024-03-02T03:31:42;1.95;;;1.40;;
12151;SDS011;6139;51.274;7.128;2024-03-02T03:32:43;3.33;;;1.70;;
12151;SDS011;6139;51.274;7.128;2024-03-02T03:33:45;1.70;;;1.60;;
12151;SDS011;6139;51.274;7.128;2024-03-02T03:34:46;3.05;;;1.55;;
12151;SDS011;6139;51.274;7.128;2024-03-02T03:35:48;1.95;;;1.60;;
12151;SDS011;6139;51.274;7.128;2024-03-02T03:36:49;1.52;;;1.42;;
12151;SDS011;6139;51.274;7.128;2024-03-02T03:37:51;2.30;;;1.43;;
12151;SDS011;6139;51.274;7.128;2024-03-02T03:38:54;3.03;;;1.57;;
12151;SDS011;6139;51.274;7.128;2024-03-02T03:39:55;2.07;;;1.50;;
12151;SDS011;6139;51.274;7.128;2024-03-02T03:40:56;2.20;;;1.50;;
12151;SDS011;6139;51.274;7.128;2024-03-02T03:41:58;1.97;;;1.50;;
12151;SDS011;6139;51.274;7.128;2024-03-02T03:42:59;2.33;;;1.50;;
12151;SDS011;6139;51.274;7.128;2024-03-02T03:44:01;2.17;;;1.50;;
12151;SDS011;6139;51.274;7.128;2024-03-02T03:45:02;2.25;;;1.33;;
12151;SDS011;6139;51.274;7.128;2024-03-02T03:46:04;2.10;;;1.45;;
12151;SDS011;6139;51.274;7.128;2024-03-02T03:47:06;1.80;;;1.38;;
12151;SDS011;6139;51.274;7.128;2024-03-02T03:48:07;1.83;;;1.60;;
12151;SDS011;6139;51.274;7.128;2024-03-02T03:49:09;1.73;;;1.42;;
12151;SDS011;6139;51.274;7.128;2024-03-02T03:50:11;1.73;;;1.42;;
12151;SDS011;6139;51.274;7.128;2024-03-02T03:51:12;2.50;;;1.80;;
12151;SDS011;6139;51.274;7.128;2024-03-02T03:52:14;2.37;;;1.80;;
12151;SDS011;6139;51.274;7.128;2024-03-02T03:53:15;2.22;;;1.60;;
12151;SDS011;6139;51.274;7.128;2024-03-02T03:54:18;1.65;;;1.20;;
12151;SDS011;6139;51.274;7.128;2024-03-02T03:55:19;1.88;;;1.50;;
12151;SDS011;6139;51.274;7.128;2024-03-02T03:56:21;2.38;;;1.55;;
12151;SDS011;6139;51.274;7.128;2024-03-02T03:57:22;1.75;;;1.48;;
12151;SDS011;6139;51.274;7.128;2024-03-02T03:58:24;1.60;;;1.50;;
12151;SDS011;6139;51.274;7.128;2024-03-02T03:59:25;2.47;;;1.50;;
12151;SDS011;6139;51.274;7.128;2024-03-02T04:00:27;1.90;;;1.33;;
12151;SDS011;6139;51.274;7.128;2024-03-02T04:01:28;1.90;;;1.70;;
12151;SDS011;6139;51.274;7.128;2024-03-02T04:02:30;2.40;;;1.85;;
12151;SDS011;6139;51.274;7.128;2024-03-02T04:03:31;3.00;;;1.80;;
12151;SDS011;6139;51.274;7.128;2024-03-02T04:04:33;2.65;;;1.63;;
12151;SDS011;6139;51.274;7.128;2024-03-02T04:05:33;1.77;;;1.40;;
12151;SDS011;6139;51.274;7.128;2024-03-02T04:06:36;3.17;;;1.50;;
12151;SDS011;6139;51.274;7.128;2024-03-02T04:07:37;1.90;;;1.53;;
12151;SDS011;6139;51.274;7.128;2024-03-02T04:08:43;2.65;;;1.70;;
12151;SDS011;6139;51.274;7.128;2024-03-02T04:09:45;2.17;;;1.50;;
12151;SDS011;6139;51.274;7.128;2024-03-02T04:10:46;2.00;;;1.67;;
12151;SDS011;6139;51.274;7.128;2024-03-02T04:11:48;2.55;;;1.60;;
12151;SDS011;6139;51.274;7.128;2024-03-02T04:12:49;2.38;;;1.48;;
12151;SDS011;6139;51.274;7.128;2024-03-02T04:13:51;1.75;;;1.63;;
12151;SDS011;6139;51.274;7.128;2024-03-02T04:14:52;2.42;;;1.80;;
12151;SDS011;6139;51.274;7.128;2024-03-02T04:15:54;2.88;;;1.60;;
12151;SDS011;6139;51.274;7.128;2024-03-02T04:16:55;1.75;;;1.50;;
12151;SDS011;6139;51.274;7.128;2024-03-02T04:17:56;3.05;;;1.88;;
12151;SDS011;6139;51.274;7.128;2024-03-02T04:18:58;4.07;;;1.50;;
12151;SDS011;6139;51.274;7.128;2024-03-02T04:19:59;2.22;;;1.65;;
12151;SDS011;6139;51.274;7.128;2024-03-02T04:21:00;2.05;;;1.73;;
12151;SDS011;6139;51.274;7.128;2024-03-02T04:22:02;3.63;;;1.40;;
12151;SDS011;6139;51.274;7.128;2024-03-02T04:23:03;2.25;;;1.50;;
12151;SDS011;6139;51.274;7.128;2024-03-02T04:24:05;2.13;;;1.60;;
12151;SDS011;6139;51.274;7.128;2024-03-02T04:25:08;3.05;;;1.70;;
12151;SDS011;6139;51.274;7.128;2024-03-02T04:26:10;3.25;;;1.77;;
12151;SDS011;6139;51.274;7.128;2024-03-02T04:27:11;2.90;;;1.60;;
12151;SDS011;6139;51.274;7.128;2024-03-02T04:28:12;2.40;;;1.58;;
12151;SDS011;6139;51.274;7.128;2024-03-02T04:29:14;2.27;;;1.67;;
12151;SDS011;6139;51.274;7.128;2024-03-02T04:30:15;3.30;;;1.60;;
12151;SDS011;6139;51.274;7.128;2024-03-02T04:31:17;2.25;;;1.73;;
12151;SDS011;6139;51.274;7.128;2024-03-02T04:32:18;3.15;;;1.58;;
12151;SDS011;6139;51.274;7.128;2024-03-02T04:33:20;2.63;;;1.50;;
12151;SDS011;6139;51.274;7.128;2024-03-02T04:34:21;1.47;;;1.37;;
12151;SDS011;6139;51.274;7.128;2024-03-02T04:35:23;2.33;;;1.55;;
12151;SDS011;6139;51.274;7.128;2024-03-02T04:36:25;2.20;;;2.00;;
12151;SDS011;6139;51.274;7.128;2024-03-02T04:37:27;2.28;;;1.77;;
12151;SDS011;6139;51.274;7.128;2024-03-02T04:38:28;2.40;;;1.60;;
12151;SDS011;6139;51.274;7.128;2024-03-02T04:39:30;2.42;;;1.60;;
12151;SDS011;6139;51.274;7.128;2024-03-02T04:40:33;1.67;;;1.50;;
12151;SDS011;6139;51.274;7.128;2024-03-02T04:41:34;2.95;;;1.75;;
12151;SDS011;6139;51.274;7.128;2024-03-02T04:42:36;1.75;;;1.60;;
12151;SDS011;6139;51.274;7.128;2024-03-02T04:43:38;3.88;;;1.80;;
12151;SDS011;6139;51.274;7.128;2024-03-02T04:44:38;2.67;;;1.52;;
12151;SDS011;6139;51.274;7.128;2024-03-02T04:45:39;2.25;;;1.40;;
12151;SDS011;6139;51.274;7.128;2024-03-02T04:46:42;1.88;;;1.38;;
12151;SDS011;6139;51.274;7.128;2024-03-02T04:47:43;2.40;;;1.60;;
12151;SDS011;6139;51.274;7.128;2024-03-02T04:48:45;2.65;;;1.60;;
12151;SDS011;6139;51.274;7.128;2024-03-02T04:49:46;1.98;;;1.70;;
12151;SDS011;6139;51.274;7.128;2024-03-02T04:50:47;1.70;;;1.60;;
12151;SDS011;6139;51.274;7.128;2024-03-02T04:51:49;2.38;;;1.50;;
12151;SDS011;6139;51.274;7.128;2024-03-02T04:52:50;2.22;;;1.92;;
12151;SDS011;6139;51.274;7.128;2024-03-02T04:53:52;2.58;;;1.60;;
12151;SDS011;6139;51.274;7.128;2024-03-02T04:54:53;1.90;;;1.73;;
12151;SDS011;6139;51.274;7.128;2024-03-02T04:56:14;2.00;;;1.80;;
12151;SDS011;6139;51.274;7.128;2024-03-02T04:57:40;1.83;;;1.50;;
12151;SDS011;6139;51.274;7.128;2024-03-02T04:58:41;5.72;;;2.45;;
12151;SDS011;6139;51.274;7.128;2024-03-02T04:59:41;3.08;;;1.80;;
12151;SDS011;6139;51.274;7.128;2024-03-02T05:00:43;1.88;;;1.40;;
12151;SDS011;6139;51.274;7.128;2024-03-02T05:01:46;2.35;;;1.63;;
12151;SDS011;6139;51.274;7.128;2024-03-02T05:02:48;1.45;;;1.27;;
12151;SDS011;6139;51.274;7.128;2024-03-02T05:03:49;1.60;;;1.45;;
12151;SDS011;6139;51.274;7.128;2024-03-02T05:04:51;1.70;;;1.60;;
12151;SDS011;6139;51.274;7.128;2024-03-02T05:05:52;3.17;;;1.70;;
12151;SDS011;6139;51.274;7.128;2024-03-02T05:06:54;1.60;;;1.50;;
12151;SDS011;6139;51.274;7.128;2024-03-02T05:07:58;2.00;;;1.80;;
12151;SDS011;6139;51.274;7.128;2024-03-02T05:09:00;1.80;;;1.60;;
12151;SDS011;6139;51.274;7.128;2024-03-02T05:10:01;3.65;;;1.60;;
12151;SDS011;6139;51.274;7.128;2024-03-02T05:11:02;2.58;;;1.60;;
12151;SDS011;6139;51.274;7.128;2024-03-02T05:12:19;1.75;;;1.55;;
12151;SDS011;6139;51.274;7.128;2024-03-02T05:13:47;2.03;;;1.67;;
12151;SDS011;6139;51.274;7.128;2024-03-02T05:14:48;3.63;;;1.80;;
12151;SDS011;6139;51.274;7.128;2024-03-02T05:15:49;2.08;;;1.70;;
12151;SDS011;6139;51.274;7.128;2024-03-02T05:16:51;2.75;;;1.90;;
12151;SDS011;6139;51.274;7.128;2024-03-02T05:17:52;2.60;;;1.70;;
12151;SDS011;6139;51.274;7.128;2024-03-02T05:18:53;3.05;;;1.83;;
12151;SDS011;6139;51.274;7.128;2024-03-02T05:19:55;2.78;;;1.67;;
12151;SDS011;6139;51.274;7.128;2024-03-02T05:20:56;2.33;;;2.05;;
12151;SDS011;6139;51.274;7.128;2024-03-02T05:21:58;1.65;;;1.52;;
12151;SDS011;6139;51.274;7.128;2024-03-02T05:22:59;2.33;;;2.03;;
12151;SDS011;6139;51.274;7.128;2024-03-02T05:24:01;2.90;;;1.80;;
12151;SDS011;6139;51.274;7.128;2024-03-02T05:25:02;2.38;;;1.80;;
12151;SDS011;6139;51.274;7.128;2024-03-02T05:26:05;2.85;;;2.03;;
12151;SDS011;6139;51.274;7.128;2024-03-02T05:27:06;1.90;;;1.70;;
12151;SDS011;6139;51.274;7.128;2024-03-02T05:28:09;2.33;;;1.67;;
12151;SDS011;6139;51.274;7.128;2024-03-02T05:29:10;1.98;;;1.77;;
12151;SDS011;6139;51.274;7.128;2024-03-02T05:30:13;3.05;;;1.75;;
12151;SDS011;6139;51.274;7.128;2024-03-02T05:31:15;3.35;;;1.95;;
12151;SDS011;6139;51.274;7.128;2024-03-02T05:32:17;2.33;;;1.58;;
12151;SDS011;6139;51.274;7.128;2024-03-02T05:33:18;5.43;;;2.00;;
12151;SDS011;6139;51.274;7.128;2024-03-02T05:34:22;3.25;;;2.20;;
12151;SDS011;6139;51.274;7.128;2024-03-02T05:35:23;2.67;;;1.85;;
12151;SDS011;6139;51.274;7.128;2024-03-02T05:36:25;7.35;;;1.77;;
12151;SDS011;6139;51.274;7.128;2024-03-02T05:37:26;2.30;;;1.80;;
12151;SDS011;6139;51.274;7.128;2024-03-02T05:38:28;2.55;;;1.80;;
12151;SDS011;6139;51.274;7.128;2024-03-02T05:39:29;2.67;;;1.90;;
12151;SDS011;6139;51.274;7.128;2024-03-02T05:40:31;2.40;;;1.83;;
12151;SDS011;6139;51.274;7.128;2024-03-02T05:41:32;3.17;;;2.42;;
12151;SDS011;6139;51.274;7.128;2024-03-02T05:42:34;4.30;;;2.20;;
12151;SDS011;6139;51.274;7.128;2024-03-02T05:43:36;2.20;;;2.00;;
12151;SDS011;6139;51.274;7.128;2024-03-02T05:44:37;2.50;;;2.20;;
12151;SDS011;6139;51.274;7.128;2024-03-02T05:45:39;3.05;;;2.00;;
12151;SDS011;6139;51.274;7.128;2024-03-02T05:46:40;1.75;;;1.63;;
12151;SDS011;6139;51.274;7.128;2024-03-02T05:47:43;2.25;;;1.98;;
12151;SDS011;6139;51.274;7.128;2024-03-02T05:48:43;2.45;;;2.10;;
12151;SDS011;6139;51.274;7.128;2024-03-02T05:49:45;2.17;;;1.98;;
12151;SDS011;6139;51.274;7.128;2024-03-02T05:50:47;2.20;;;2.00;;
12151;SDS011;6139;51.274;7.128;2024-03-02T05:51:49;2.70;;;1.90;;
12151;SDS011;6139;51.274;7.128;2024-03-02T05:52:50;6.03;;;2.10;;
12151;SDS011;6139;51.274;7.128;2024-03-02T05:53:52;2.47;;;2.00;;
12151;SDS011;6139;51.274;7.128;2024-03-02T05:54:53;2.40;;;2.20;;
12151;SDS011;6139;51.274;7.128;2024-03-02T05:55:55;2.83;;;1.83;;
12151;SDS011;6139;51.274;7.128;2024-03-02T05:56:56;4.20;;;2.40;;
12151;SDS011;6139;51.274;7.128;2024-03-02T05:58:16;3.65;;;2.10;;
12151;SDS011;6139;51.274;7.128;2024-03-02T05:59:27;3.17;;;2.45;;
12151;SDS011;6139;51.274;7.128;2024-03-02T06:00:29;3.77;;;2.30;;
12151;SDS011;6139;51.274;7.128;2024-03-02T06:01:31;2.38;;;2.17;;
12151;SDS011;6139;51.274;7.128;2024-03-02T06:02:33;3.92;;;2.35;;
12151;SDS011;6139;51.274;7.128;2024-03-02T06:03:35;2.60;;;2.28;;
12151;SDS011;6139;51.274;7.128;2024-03-02T06:04:37;4.05;;;2.22;;
12151;SDS011;6139;51.274;7.128;2024-03-02T06:05:38;3.40;;;2.33;;
12151;SDS011;6139;51.274;7.128;2024-03-02T06:06:39;3.60;;;2.20;;
12151;SDS011;6139;51.274;7.128;2024-03-02T06:07:41;3.50;;;2.53;;
12151;SDS011;6139;51.274;7.128;2024-03-02T06:08:43;2.93;;;2.40;;
12151;SDS011;6139;51.274;7.128;2024-03-02T06:09:45;3.00;;;2.70;;
12151;SDS011;6139;51.274;7.128;2024-03-02T06:10:48;2.40;;;2.20;;
12151;SDS011;6139;51.274;7.128;2024-03-02T06:11:50;4.53;;;2.53;;
12151;SDS011;6139;51.274;7.128;2024-03-02T06:12:51;2.95;;;2.22;;
12151;SDS011;6139;51.274;7.128;2024-03-02T06:13:53;2.83;;;2.40;;
12151;SDS011;6139;51.274;7.128;2024-03-02T06:14:55;3.90;;;2.60;;
12151;SDS011;6139;51.274;7.128;2024-03-02T06:15:57;3.30;;;2.60;;
12151;SDS011;6139;51.274;7.128;2024-03-02T06:16:58;3.60;;;2.40;;
12151;SDS011;6139;51.274;7.128;2024-03-02T06:17:59;3.35;;;2.67;;
12151;SDS011;6139;51.274;7.128;2024-03-02T06:19:01;3.67;;;2.70;;
12151;SDS011;6139;51.274;7.128;2024-03-02T06:20:03;3.03;;;2.40;;